Barrow: Past 24 Hour Conditions

 

Iqaluit Airport

03:00 PM EST 26 November 2014
This table is a summary of hourly weather conditions for the past 24 hours.
Date / Time
(EST)
Wind(knots) Conditions Visibility(km) Pressure(kPa) Air tempC) Relative humidity(%) Dew pointC) Wind Chill
26 November 2014
15:00 ESE 4 Partly Cloudy 40 100.4 -15 70 -19 -20
14:00 ESE 6 Partly Cloudy 48 100.4 -15 70 -20 -22
13:00 E 2 Mostly Cloudy 48 100.4 -16 68 -21 -19
12:00 NNE 3 Partly Cloudy 48 100.4 -20 64 -25 -25
11:00 NNE 3 Mainly Sunny 48 100.4 -20 62 -26 -25
10:00 N 3 Mainly Sunny 48 100.4 -22 68 -27 -28
9:00 NNW 3 Partly Cloudy 48 100.4 -23 69 -27 -27
8:00 NW 7 Partly Cloudy 48 100.4 -22 68 -27 -31
7:00 NW 6 Clear 24 100.3 -20 68 -24 -28
6:00 NW 10 Clear 24 100.3 -22 70 -26 -32
5:00 NW 12 Clear 24 100.3 -21 69 -26 -33
4:00 NW 12 Clear 24 100.2 -21 68 -25 -32
3:00 NNW 17 gust 22 Partly Cloudy 24 100.1 -20 67 -24 -32
2:00 NW 18 Partly Cloudy 24 100.1 -19 70 -23 -32
1:00 NW 16 Mostly Cloudy 24 100.0 -18 69 -23 -31
0:00 NNW 17 gust 25 Drifting Snow 24 100.0 -18 67 -23 -30
25 November 2014
23:00 NNW 20 gust 26 Drifting Snow 24 100.0 -18 68 -23 -31
22:00 N 21 gust 26 Drifting Snow 24 99.9 -19 70 -24 -33
21:00 NNW 19 gust 26 Drifting Snow 24 99.9 -19 71 -23 -33
20:00 NNW 21 Drifting Snow 24 100.0 -20 72 -24 -34
19:00 NNW 19 Drifting Snow 24 100.0 -20 71 -24 -33
18:00 NW 17 Drifting Snow 24 100.0 -20 71 -24 -33
17:00 NW 18 Drifting Snow 24 100.0 -20 70 -25 -34
16:00 NNW 19 Drifting Snow 24 100.0 -21 70 -25 -35
15:00 NNW 17 gust 22 Ice Crystals 32 100.0 -21 70 -25 -34
 
Map of Arctic - Eastern Arctic marine weather areas Baker Lake Airport Chesterfield Inlet Airport Coral Harbour Airport Gjoa Haven Airport Kugaaruk Airport Rankin Inlet Airport Shepherd Bay Airport Whale Cove Airport Arctic Bay Brevoort Island Qikiqtarjuaq Airport Cape Dorset Airport Cape Dyer Cape Hooper Clyde Airport Grise Fiord Airport Hall Beach Airport Igloolik Airport Iqaluit Airport Longstaff Bluff Pangnirtung Airport Pond Inlet Airport Repulse Bay Airport Resolute Airport Resolution Island Rowley Island Airport Taloyoak Airport Wager Bay Akulivik Airport Ivujivik Airport Puvirnituq Airport Kangiqsujuaq Airport Kangirsuk Airport Quaqtaq Airport Tasiujaq Airport Cape Kakkiviak Cape Kiglapait Nain Airport Saglek Cape Mercy Kimmirut Airport Aupaluk Airport Salluit Airport Kangiqsualujjuaq Airport Fort Ross
Legend: buoyBuoy land stationLand Station